Terminal Aerodrome Forecast
Issued by NWS Pocatello, ID

Home | Current Version | Previous Version | Text Only | Print | Product List | Glossary On
Versions: 1 2 3 4 5 6 7 8 9 10 11 12
575
FTUS45 KPIH 301722
TAFBYI
TAF
KBYI 301722Z 3018/3118 VRB06KT P6SM SCT250
     FM302100 18012G20KT P6SM SCT250
     FM310300 13008KT P6SM SCT150
     FM310800 14005KT P6SM BKN150 WS020/17030KT
     FM311100 18007KT P6SM SCT150=

USA.gov is the U.S. government's official web portal to all federal, state and local government web resources and services.